createdAt,value
2022-07-29T00:00:19.698Z,1.80
2022-07-29T00:03:07.355Z,1.92
2022-07-29T00:05:54.978Z,2.00
2022-07-29T00:08:42.610Z,1.90
2022-07-29T00:11:30.140Z,1.90
2022-07-29T00:14:17.541Z,2.10
2022-07-29T00:17:04.999Z,1.70
2022-07-29T00:19:52.453Z,1.90
2022-07-29T00:22:40.895Z,1.95
2022-07-29T00:25:28.417Z,1.80
2022-07-29T00:28:15.765Z,1.98
2022-07-29T00:31:03.367Z,2.00
2022-07-29T00:33:51.011Z,2.00
2022-07-29T00:36:38.338Z,2.10
2022-07-29T00:39:26.050Z,1.85
2022-07-29T00:42:15.189Z,1.80
2022-07-29T00:45:02.698Z,1.82
2022-07-29T00:47:50.540Z,2.05
2022-07-29T00:50:38.596Z,1.80
2022-07-29T00:53:27.290Z,1.70
2022-07-29T00:56:14.947Z,1.67
2022-07-29T00:59:02.517Z,1.98
2022-07-29T01:01:50.336Z,2.00
2022-07-29T01:04:37.762Z,1.98
2022-07-29T01:07:26.684Z,1.80
2022-07-29T01:10:15.875Z,2.08
2022-07-29T01:13:04.179Z,1.92
2022-07-29T01:16:01.843Z,1.67
2022-07-29T01:18:51.339Z,1.70
2022-07-29T01:21:57.426Z,1.52
2022-07-29T01:25:08.950Z,1.70
2022-07-29T01:28:33.010Z,1.90
2022-07-29T01:31:25.309Z,1.67
2022-07-29T01:34:16.497Z,1.70
2022-07-29T01:37:13.033Z,1.57
2022-07-29T01:40:01.761Z,1.60
2022-07-29T01:42:52.329Z,1.82
2022-07-29T01:46:01.667Z,2.45
2022-07-29T01:51:34.594Z,1.70
2022-07-29T01:54:24.713Z,1.98
2022-07-29T01:57:15.842Z,2.10
2022-07-29T02:02:50.526Z,1.50
2022-07-29T02:05:38.939Z,1.85
2022-07-29T02:08:27.257Z,1.80
2022-07-29T02:11:14.762Z,2.02
2022-07-29T02:14:02.880Z,2.20
2022-07-29T02:16:52.241Z,2.40
2022-07-29T02:19:40.122Z,2.12
2022-07-29T02:22:30.867Z,2.47
2022-07-29T02:25:18.898Z,4.35
2022-07-29T02:28:07.866Z,3.20
2022-07-29T02:30:56.968Z,2.83
2022-07-29T02:33:44.594Z,3.00
2022-07-29T02:36:32.721Z,2.87
2022-07-29T02:39:20.527Z,3.20
2022-07-29T02:42:09.946Z,2.90
2022-07-29T02:44:58.121Z,3.10
2022-07-29T02:47:48.804Z,2.55
2022-07-29T02:50:39.514Z,2.45
2022-07-29T02:53:28.073Z,2.30
2022-07-29T02:56:17.169Z,3.10
2022-07-29T02:59:06.932Z,2.45
2022-07-29T03:01:55.600Z,2.20
2022-07-29T03:04:44.961Z,2.27
2022-07-29T03:07:32.585Z,1.70
2022-07-29T03:10:20.689Z,1.70
2022-07-29T03:13:09.011Z,2.15
2022-07-29T03:15:56.785Z,1.80
2022-07-29T03:18:44.265Z,1.80
2022-07-29T03:21:31.858Z,1.70
2022-07-29T03:24:33.032Z,1.92
2022-07-29T03:27:20.834Z,2.05
2022-07-29T03:30:09.078Z,1.80
2022-07-29T03:32:57.186Z,2.10
2022-07-29T03:35:45.449Z,1.90
2022-07-29T03:38:34.187Z,2.00
2022-07-29T03:41:22.757Z,1.80
2022-07-29T03:44:10.914Z,2.00
2022-07-29T03:46:59.785Z,1.75
2022-07-29T03:49:48.898Z,1.80
2022-07-29T03:52:36.769Z,2.02
2022-07-29T03:55:24.594Z,2.00
2022-07-29T03:58:13.352Z,1.98
2022-07-29T04:01:01.216Z,1.90
2022-07-29T04:03:48.637Z,1.82
2022-07-29T04:06:48.402Z,1.35
2022-07-29T04:09:36.062Z,1.50
2022-07-29T04:12:23.472Z,1.30
2022-07-29T04:15:11.464Z,1.30
2022-07-29T04:17:59.027Z,1.42
2022-07-29T04:20:46.548Z,1.30
2022-07-29T04:23:36.425Z,1.37
2022-07-29T04:26:25.641Z,1.40
2022-07-29T04:29:13.160Z,1.40
2022-07-29T04:32:00.616Z,1.40
2022-07-29T04:34:47.881Z,1.32
2022-07-29T04:37:35.143Z,1.40
2022-07-29T04:40:22.433Z,1.57
2022-07-29T04:43:10.094Z,1.55
2022-07-29T04:45:59.493Z,1.50
2022-07-29T04:48:48.952Z,1.45
2022-07-29T04:51:36.776Z,1.22
2022-07-29T04:54:25.533Z,1.20
2022-07-29T04:57:13.016Z,1.40
2022-07-29T05:00:00.871Z,1.65
2022-07-29T05:02:48.195Z,1.40
2022-07-29T05:05:35.666Z,1.40
2022-07-29T05:08:22.820Z,1.30
2022-07-29T05:11:11.275Z,1.50
2022-07-29T05:13:59.279Z,1.22
2022-07-29T05:16:46.592Z,1.50
2022-07-29T05:19:34.071Z,1.50
2022-07-29T05:22:24.711Z,1.30
2022-07-29T05:25:12.167Z,1.10
2022-07-29T05:27:59.569Z,1.70
2022-07-29T05:30:47.106Z,1.25
2022-07-29T05:33:37.119Z,1.22
2022-07-29T05:36:23.417Z,1.20
2022-07-29T05:39:11.329Z,1.10
2022-07-29T05:41:58.657Z,0.90
2022-07-29T05:44:45.930Z,1.05
2022-07-29T05:47:33.257Z,1.32
2022-07-29T05:50:20.586Z,0.90
2022-07-29T05:53:20.158Z,1.22
2022-07-29T05:55:59.752Z,1.20
2022-07-29T05:58:47.072Z,1.92
2022-07-29T06:01:34.674Z,0.93
2022-07-29T06:04:23.894Z,1.30
2022-07-29T06:07:12.476Z,1.10
2022-07-29T06:09:59.498Z,1.07
2022-07-29T06:12:46.987Z,1.00
2022-07-29T06:15:34.682Z,1.00
2022-07-29T06:18:24.097Z,1.20
2022-07-29T06:21:12.154Z,1.00
2022-07-29T06:23:59.665Z,1.00
2022-07-29T06:26:48.076Z,0.90
2022-07-29T06:29:35.816Z,1.22
2022-07-29T06:32:27.367Z,0.85
2022-07-29T06:35:39.043Z,0.93
2022-07-29T06:38:01.387Z,1.20
2022-07-29T06:41:06.366Z,0.95
2022-07-29T06:43:54.506Z,1.07
2022-07-29T06:46:42.984Z,0.80
2022-07-29T06:49:31.108Z,1.17
2022-07-29T06:52:18.666Z,0.90
2022-07-29T06:55:06.539Z,0.95
2022-07-29T06:57:54.160Z,1.30
2022-07-29T07:00:41.655Z,1.17
2022-07-29T07:03:28.809Z,0.90
2022-07-29T07:06:15.975Z,0.85
2022-07-29T07:09:03.518Z,1.37
2022-07-29T07:11:51.288Z,1.02
2022-07-29T07:14:38.663Z,1.10
2022-07-29T07:17:26.039Z,1.10
2022-07-29T07:20:13.673Z,1.05
2022-07-29T07:23:01.555Z,1.00
2022-07-29T07:25:49.064Z,0.85
2022-07-29T07:28:36.392Z,1.20
2022-07-29T07:31:23.816Z,0.80
2022-07-29T07:34:11.335Z,1.12
2022-07-29T07:36:58.464Z,0.80
2022-07-29T07:39:45.775Z,0.80
2022-07-29T07:42:33.399Z,1.10
2022-07-29T07:45:20.825Z,0.93
2022-07-29T07:48:08.183Z,0.98
2022-07-29T07:50:55.570Z,1.07
2022-07-29T07:53:43.412Z,0.90
2022-07-29T07:56:35.154Z,1.20
2022-07-29T07:59:20.159Z,1.25
2022-07-29T08:02:08.350Z,1.00
2022-07-29T08:04:55.576Z,0.78
2022-07-29T08:07:43.384Z,0.78
2022-07-29T08:10:50.054Z,1.00
2022-07-29T08:13:38.865Z,1.25
2022-07-29T08:16:26.369Z,1.00
2022-07-29T08:19:13.984Z,1.12
2022-07-29T08:22:01.447Z,1.17
2022-07-29T08:24:50.199Z,1.30
2022-07-29T08:27:45.003Z,1.00
2022-07-29T08:30:26.958Z,1.27
2022-07-29T08:33:14.006Z,1.10
2022-07-29T08:36:01.583Z,1.10
2022-07-29T08:38:50.713Z,1.25
2022-07-29T08:41:38.576Z,1.10
2022-07-29T08:44:31.063Z,1.20
2022-07-29T08:47:18.952Z,1.70
2022-07-29T08:50:06.719Z,1.10
2022-07-29T08:52:59.385Z,1.42
2022-07-29T08:55:52.223Z,1.12
2022-07-29T08:58:39.864Z,1.07
2022-07-29T09:01:35.972Z,1.15
2022-07-29T09:04:22.698Z,1.20
2022-07-29T09:07:11.391Z,1.20
2022-07-29T09:09:59.105Z,1.20
2022-07-29T09:12:47.160Z,1.30
2022-07-29T09:15:34.847Z,1.30
2022-07-29T09:18:39.577Z,1.30
2022-07-29T09:21:45.727Z,1.20
2022-07-29T09:24:41.912Z,1.35
2022-07-29T09:27:30.115Z,1.20
2022-07-29T09:30:28.855Z,1.30
2022-07-29T09:33:06.769Z,1.20
2022-07-29T09:36:05.879Z,1.10
2022-07-29T09:39:04.241Z,1.37
2022-07-29T09:41:56.265Z,1.60
2022-07-29T09:44:49.648Z,1.42
2022-07-29T09:50:39.633Z,1.30
2022-07-29T09:53:38.491Z,1.20
2022-07-29T09:56:42.899Z,1.40
2022-07-29T09:59:30.092Z,1.47
2022-07-29T10:02:23.657Z,1.35
2022-07-29T10:05:10.769Z,1.30
2022-07-29T10:10:45.657Z,1.45
2022-07-29T10:13:33.016Z,1.50
2022-07-29T10:16:20.859Z,1.30
2022-07-29T10:19:08.695Z,1.30
2022-07-29T10:21:58.142Z,1.40
2022-07-29T10:24:46.096Z,1.40
2022-07-29T10:27:33.544Z,1.70
2022-07-29T10:30:22.480Z,1.62
2022-07-29T10:33:13.567Z,1.57
2022-07-29T10:36:14.321Z,1.20
2022-07-29T10:42:33.923Z,1.95
2022-07-29T10:45:10.145Z,1.70
2022-07-29T10:48:07.918Z,1.50
2022-07-29T10:51:07.177Z,1.37
2022-07-29T10:53:55.313Z,2.65
2022-07-29T10:56:43.097Z,1.50
2022-07-29T10:59:36.371Z,1.45
2022-07-29T11:02:45.074Z,1.98
2022-07-29T11:05:40.791Z,2.00
2022-07-29T11:08:26.421Z,1.70
2022-07-29T11:11:31.456Z,1.65
2022-07-29T11:14:26.571Z,1.70
2022-07-29T11:17:10.258Z,1.90
2022-07-29T11:20:33.959Z,1.90
2022-07-29T11:26:18.872Z,1.90
2022-07-29T11:29:09.394Z,1.80
2022-07-29T11:32:01.695Z,2.20
2022-07-29T11:34:50.256Z,1.80
2022-07-29T11:37:45.977Z,2.00
2022-07-29T11:40:26.552Z,1.90
2022-07-29T11:43:15.457Z,1.90
2022-07-29T11:46:02.816Z,2.00
2022-07-29T11:48:52.020Z,2.00
2022-07-29T11:51:48.729Z,2.15
2022-07-29T11:54:32.475Z,2.08
2022-07-29T11:57:22.953Z,2.60
2022-07-29T12:00:14.662Z,2.05
2022-07-29T12:03:05.510Z,2.17
2022-07-29T12:05:53.096Z,1.90
2022-07-29T12:08:43.987Z,2.17
2022-07-29T12:11:31.888Z,1.90
2022-07-29T12:14:35.487Z,2.62
2022-07-29T12:17:36.856Z,1.77
2022-07-29T12:20:29.657Z,1.75
2022-07-29T12:23:19.001Z,2.05
2022-07-29T12:26:10.755Z,2.53
2022-07-29T12:28:57.490Z,2.35
2022-07-29T12:31:47.668Z,2.08
2022-07-29T12:34:36.872Z,2.15
2022-07-29T12:37:41.335Z,1.90
2022-07-29T12:40:16.064Z,2.50
2022-07-29T12:43:11.624Z,2.35
2022-07-29T12:45:59.729Z,2.25
2022-07-29T12:48:47.599Z,2.20
2022-07-29T12:54:19.959Z,2.35
2022-07-29T12:57:07.548Z,2.35
2022-07-29T13:00:12.029Z,2.25
2022-07-29T13:03:00.835Z,1.80
2022-07-29T13:05:49.582Z,2.15
2022-07-29T13:08:37.149Z,2.30
2022-07-29T13:11:47.940Z,2.20
2022-07-29T13:14:45.696Z,2.17
2022-07-29T13:17:34.860Z,2.17
2022-07-29T13:20:25.497Z,2.22
2022-07-29T13:23:12.578Z,2.77
2022-07-29T13:26:03.010Z,1.90
2022-07-29T13:28:50.874Z,1.90
2022-07-29T13:31:38.401Z,1.90
2022-07-29T13:34:25.666Z,2.15
2022-07-29T13:37:13.474Z,1.90
2022-07-29T13:40:03.152Z,2.12
2022-07-29T13:42:50.631Z,2.15
2022-07-29T13:45:38.452Z,1.82
2022-07-29T13:48:25.882Z,2.00
2022-07-29T13:51:13.297Z,2.08
2022-07-29T13:54:01.409Z,2.10
2022-07-29T13:56:50.225Z,2.10
2022-07-29T13:59:37.704Z,1.92
2022-07-29T14:02:26.376Z,2.25
2022-07-29T14:05:14.291Z,2.10
2022-07-29T14:08:02.169Z,2.30
2022-07-29T14:10:49.737Z,2.00
2022-07-29T14:13:38.778Z,2.58
2022-07-29T14:16:27.430Z,2.00
2022-07-29T14:19:14.993Z,2.45
2022-07-29T14:22:03.019Z,2.30
2022-07-29T14:24:50.905Z,2.00
2022-07-29T14:27:39.354Z,2.27
2022-07-29T14:30:28.473Z,2.08
2022-07-29T14:33:16.208Z,1.70
2022-07-29T14:36:03.848Z,1.92
2022-07-29T14:38:50.976Z,1.90
2022-07-29T14:41:39.257Z,1.70
2022-07-29T14:44:28.370Z,1.62
2022-07-29T14:47:16.058Z,1.60
2022-07-29T14:50:03.910Z,1.62
2022-07-29T14:52:51.618Z,1.77
2022-07-29T14:55:38.757Z,1.60
2022-07-29T14:58:26.057Z,1.50
2022-07-29T15:01:13.965Z,1.40
2022-07-29T15:04:01.400Z,1.60
2022-07-29T15:06:48.689Z,1.50
2022-07-29T15:09:36.279Z,1.35
2022-07-29T15:12:25.097Z,1.40
2022-07-29T15:15:12.313Z,1.85
2022-07-29T15:18:00.153Z,1.50
2022-07-29T15:20:47.849Z,1.40
2022-07-29T15:23:39.849Z,1.32
2022-07-29T15:26:27.379Z,1.25
2022-07-29T15:29:15.425Z,1.70
2022-07-29T15:32:03.633Z,1.80
2022-07-29T15:34:51.106Z,1.35
2022-07-29T15:37:48.682Z,1.67
2022-07-29T15:40:28.583Z,1.60
2022-07-29T15:43:16.312Z,1.67
2022-07-29T15:46:21.793Z,1.47
2022-07-29T15:49:09.750Z,1.50
2022-07-29T15:51:59.946Z,1.32
2022-07-29T15:54:46.458Z,1.47
2022-07-29T15:57:33.832Z,1.55
2022-07-29T16:00:22.984Z,1.22
2022-07-29T16:05:57.394Z,1.92
2022-07-29T16:08:44.945Z,1.70
2022-07-29T16:11:32.640Z,1.60
2022-07-29T16:14:20.748Z,1.40
2022-07-29T16:17:08.762Z,1.70
2022-07-29T16:19:58.360Z,1.80
2022-07-29T16:22:46.120Z,1.72
2022-07-29T16:25:58.461Z,1.82
2022-07-29T16:28:23.127Z,2.08
2022-07-29T16:31:11.043Z,1.70
2022-07-29T16:34:00.193Z,2.12
2022-07-29T16:36:48.012Z,1.82
2022-07-29T16:39:35.853Z,2.15
2022-07-29T16:42:44.407Z,1.72
2022-07-29T16:45:12.654Z,2.40
2022-07-29T16:48:01.240Z,1.87
2022-07-29T16:50:48.913Z,1.90
2022-07-29T16:53:36.625Z,2.83
2022-07-29T16:56:25.080Z,2.00
2022-07-29T16:59:12.625Z,1.85
2022-07-29T17:02:01.690Z,1.60
2022-07-29T17:04:49.873Z,1.85
2022-07-29T17:07:37.521Z,2.45
2022-07-29T17:10:24.757Z,2.00
2022-07-29T17:13:14.131Z,2.20
2022-07-29T17:16:01.558Z,2.33
2022-07-29T17:18:49.144Z,1.70
2022-07-29T17:21:36.644Z,1.70
2022-07-29T17:24:25.513Z,2.10
2022-07-29T17:27:13.241Z,2.15
2022-07-29T17:30:00.578Z,1.95
2022-07-29T17:32:47.946Z,1.95
2022-07-29T17:35:54.377Z,2.00
2022-07-29T17:38:41.770Z,2.77
2022-07-29T17:41:29.315Z,2.27
2022-07-29T17:44:17.041Z,2.30
2022-07-29T17:47:05.154Z,2.02
2022-07-29T17:49:53.195Z,2.55
2022-07-29T17:52:40.945Z,2.70
2022-07-29T17:55:28.115Z,2.20
2022-07-29T17:58:15.821Z,3.02
2022-07-29T18:01:03.324Z,4.55
2022-07-29T18:03:51.193Z,2.70
2022-07-29T18:06:38.450Z,3.37
2022-07-29T18:09:26.003Z,3.22
2022-07-29T18:12:13.626Z,5.03
2022-07-29T18:15:00.644Z,3.15
2022-07-29T18:17:57.025Z,3.98
2022-07-29T18:20:37.506Z,2.47
2022-07-29T18:23:25.339Z,3.10
2022-07-29T18:26:12.738Z,4.60
2022-07-29T18:29:00.298Z,3.20
2022-07-29T18:31:47.483Z,2.45
2022-07-29T18:34:35.009Z,2.60
2022-07-29T18:38:02.200Z,2.72
2022-07-29T18:40:12.685Z,2.92
2022-07-29T18:42:59.945Z,3.45
2022-07-29T18:45:49.209Z,3.87
2022-07-29T18:48:38.431Z,3.42
2022-07-29T18:51:26.242Z,3.05
2022-07-29T18:54:14.151Z,2.83
2022-07-29T18:57:02.082Z,2.95
2022-07-29T18:59:53.954Z,2.30
2022-07-29T19:02:41.352Z,2.75
2022-07-29T19:05:30.221Z,2.17
2022-07-29T19:08:17.921Z,2.22
2022-07-29T19:11:05.873Z,2.62
2022-07-29T19:13:53.386Z,2.33
2022-07-29T19:16:41.362Z,2.02
2022-07-29T19:19:29.081Z,2.02
2022-07-29T19:22:16.781Z,1.90
2022-07-29T19:25:04.681Z,1.87
2022-07-29T19:27:51.929Z,2.00
2022-07-29T19:30:40.472Z,1.87
2022-07-29T19:33:27.810Z,2.02
2022-07-29T19:36:15.721Z,2.10
2022-07-29T19:39:03.656Z,4.80
2022-07-29T19:41:59.193Z,4.37
2022-07-29T19:44:44.944Z,4.90
2022-07-29T19:47:32.352Z,5.90
2022-07-29T19:50:20.152Z,5.37
2022-07-29T19:53:07.809Z,5.28
2022-07-29T19:55:55.249Z,3.85
2022-07-29T19:58:44.213Z,2.90
2022-07-29T20:01:33.619Z,2.53
2022-07-29T20:04:20.992Z,1.80
2022-07-29T20:07:12.608Z,1.60
2022-07-29T20:09:59.888Z,1.87
2022-07-29T20:12:47.883Z,1.55
2022-07-29T20:15:37.493Z,1.60
2022-07-29T20:18:25.721Z,1.62
2022-07-29T20:21:14.170Z,1.75
2022-07-29T20:24:02.978Z,2.15
2022-07-29T20:26:51.841Z,1.30
2022-07-29T20:29:40.057Z,1.55
2022-07-29T20:32:27.857Z,1.80
2022-07-29T20:35:15.690Z,1.40
2022-07-29T20:38:03.504Z,1.85
2022-07-29T20:40:51.104Z,1.90
2022-07-29T20:43:39.290Z,2.20
2022-07-29T20:46:26.900Z,2.10
2022-07-29T20:49:14.873Z,2.40
2022-07-29T20:52:02.178Z,2.58
2022-07-29T20:54:49.521Z,2.37
2022-07-29T20:57:39.034Z,2.02
2022-07-29T21:00:26.528Z,2.20
2022-07-29T21:03:13.738Z,1.60
2022-07-29T21:06:01.800Z,1.87
2022-07-29T21:08:49.611Z,1.50
2022-07-29T21:11:43.484Z,1.75
2022-07-29T21:14:30.323Z,1.50
2022-07-29T21:17:21.213Z,1.30
2022-07-29T21:20:11.498Z,1.50
2022-07-29T21:22:59.210Z,1.40
2022-07-29T21:25:48.197Z,1.40
2022-07-29T21:28:41.601Z,1.42
2022-07-29T21:31:29.369Z,1.75
2022-07-29T21:34:16.995Z,1.72
2022-07-29T21:37:04.915Z,2.05
2022-07-29T21:39:53.658Z,1.77
2022-07-29T21:42:40.925Z,1.90
2022-07-29T21:45:28.338Z,1.60
2022-07-29T21:48:16.073Z,1.90
2022-07-29T21:51:03.411Z,1.90
2022-07-29T21:53:50.692Z,2.12
2022-07-29T21:56:39.577Z,2.30
2022-07-29T21:59:26.888Z,1.95
2022-07-29T22:02:14.306Z,2.20
2022-07-29T22:05:02.116Z,1.95
2022-07-29T22:07:54.585Z,2.20
2022-07-29T22:10:38.834Z,1.98
2022-07-29T22:13:26.689Z,1.90
2022-07-29T22:16:15.172Z,1.85
2022-07-29T22:19:03.948Z,2.05
2022-07-29T22:21:51.586Z,2.02
2022-07-29T22:24:39.282Z,2.05
2022-07-29T22:27:26.449Z,1.95
2022-07-29T22:30:14.428Z,2.00
2022-07-29T22:33:01.821Z,2.17
2022-07-29T22:35:49.278Z,2.17
2022-07-29T22:38:37.005Z,2.00
2022-07-29T22:41:24.683Z,2.05
2022-07-29T22:44:11.835Z,1.98
2022-07-29T22:47:00.078Z,1.77
2022-07-29T22:49:48.153Z,2.37
2022-07-29T22:52:35.393Z,2.33
2022-07-29T22:55:22.856Z,2.27
2022-07-29T22:58:10.322Z,2.72
2022-07-29T23:00:58.086Z,2.58
2022-07-29T23:03:50.863Z,2.22
2022-07-29T23:06:35.323Z,2.45
2022-07-29T23:09:23.155Z,2.67
2022-07-29T23:12:10.731Z,2.60
2022-07-29T23:14:57.978Z,2.30
2022-07-29T23:17:45.600Z,2.10
2022-07-29T23:20:33.185Z,2.45
2022-07-29T23:23:20.584Z,2.30
2022-07-29T23:26:07.808Z,2.77
2022-07-29T23:28:54.909Z,2.72
2022-07-29T23:31:48.060Z,2.58
2022-07-29T23:34:31.443Z,2.47
2022-07-29T23:37:18.888Z,2.40
2022-07-29T23:40:10.827Z,2.80
2022-07-29T23:42:56.344Z,2.52
2022-07-29T23:45:45.193Z,2.50
2022-07-29T23:48:32.784Z,2.75
2022-07-29T23:51:20.452Z,2.52
2022-07-29T23:54:08.346Z,2.70
2022-07-29T23:56:57.231Z,3.17
2022-07-29T23:59:45.057Z,2.73
